Time;durP1;ratioP1;P1;durP2;ratioP2;P2;SDS_P1;SDS_P2;PMS_P1;PMS_P2;Temp;Humidity;BMP_temperature;BMP_pressure;BME280_temperature;BME280_humidity;BME280_pressure;Samples;Min_cycle;Max_cycle;Signal;HPM_P1;HPM_P2
2023/09/25 00:01:41;;;;;;;;;;;;;;;9.41;75.74;102761.36;106209;1265;66639;-84
2023/09/25 00:04:07;;;;;;;;;;;;;;;9.38;75.69;102762.08;106161;1262;124035;-84
2023/09/25 00:06:34;;;;;;;;;;;;;;;9.35;75.65;102768.36;106248;1260;60820;-84
2023/09/25 00:09:01;;;;;;;;;;;;;;;9.32;75.80;102766.63;106154;1261;61296;-84
2023/09/25 00:11:27;;;;;;;;;;;;;;;9.31;75.87;102764.96;106147;1260;124335;-84
2023/09/25 00:13:54;;;;;;;;;;;;;;;9.29;75.89;102760.84;106186;1264;65165;-84
2023/09/25 00:16:21;;;;;;;;;;;;;;;9.26;75.91;102762.93;106095;1261;123914;-83
2023/09/25 00:18:47;;;;;;;;;;;;;;;9.22;75.88;102763.02;106189;1261;61301;-82
2023/09/25 00:21:14;;;;;;;;;;;;;;;9.17;75.94;102763.73;106173;1264;124125;-83
2023/09/25 00:23:41;;;;;;;;;;;;;;;9.12;75.98;102766.96;106254;1265;73357;-83
2023/09/25 00:26:07;;;;;;;;;;;;;;;9.06;76.11;102768.65;106319;1263;64910;-83
2023/09/25 00:28:34;;;;;;;;;;;;;;;9.01;76.10;102769.71;106121;1264;124091;-83
2023/09/25 00:31:01;;;;;;;;;;;;;;;8.97;76.28;102769.30;106199;1261;61286;-83
2023/09/25 00:33:27;;;;;;;;;;;;;;;8.92;76.33;102767.61;106317;1262;124551;-82
2023/09/25 00:35:54;;;;;;;;;;;;;;;8.89;76.46;102768.30;106334;1264;74693;-84
2023/09/25 00:38:20;;;;;;;;;;;;;;;8.88;76.51;102769.24;106278;1263;66428;-83
2023/09/25 00:40:47;;;;;;;;;;;;;;;8.86;76.56;102766.16;106080;1264;125019;-82
2023/09/25 00:43:13;;;;;;;;;;;;;;;8.87;76.68;102766.89;106352;1263;61304;-82
2023/09/25 00:45:41;;;;;;;;;;;;;;;8.87;76.75;102770.25;106413;1261;124900;-83
2023/09/25 00:48:28;;;;;;;;;;;;;;;8.87;76.72;102769.54;106326;1262;74693;-83
2023/09/25 00:50:57;;;;;;;;;;;;;;;8.87;76.78;102770.44;106330;1260;64766;-83
2023/09/25 00:53:24;;;;;;;;;;;;;;;8.88;76.76;102768.53;106309;1263;124616;-83
2023/09/25 00:55:51;;;;;;;;;;;;;;;8.86;76.72;102769.11;106280;1263;61394;-83
2023/09/25 00:58:17;;;;;;;;;;;;;;;8.86;76.73;102769.80;106109;1265;124629;-84
2023/09/25 01:00:44;;;;;;;;;;;;;;;8.83;76.71;102767.55;106279;1263;74510;-82
2023/09/25 01:03:11;;;;;;;;;;;;;;;8.80;76.71;102759.64;106171;1260;125042;-83
2023/09/25 01:05:38;;;;;;;;;;;;;;;8.78;76.74;102759.69;106202;1261;72769;-83
2023/09/25 01:08:05;;;;;;;;;;;;;;;8.75;76.71;102754.63;106151;1261;61903;-83
2023/09/25 01:10:32;;;;;;;;;;;;;;;8.76;76.85;102753.60;106338;1263;124627;-83
2023/09/25 01:13:00;;;;;;;;;;;;;;;8.76;76.75;102754.66;106124;1260;73838;-83
2023/09/25 01:15:27;;;;;;;;;;;;;;;8.77;76.84;102755.05;106273;1264;124777;-82
2023/09/25 01:17:53;;;;;;;;;;;;;;;8.77;76.85;102759.10;106399;1261;72768;-83
2023/09/25 01:20:22;;;;;;;;;;;;;;;8.78;76.87;102754.62;106280;1261;61253;-83
2023/09/25 01:22:49;;;;;;;;;;;;;;;8.79;76.84;102754.13;106157;1263;124580;-83
2023/09/25 01:25:16;;;;;;;;;;;;;;;8.77;76.77;102751.54;106272;1260;72392;-83
2023/09/25 01:27:43;;;;;;;;;;;;;;;8.74;76.72;102749.96;106051;1273;124941;-83
2023/09/25 01:30:10;;;;;;;;;;;;;;;8.71;76.79;102751.04;106149;1261;72835;-84
2023/09/25 01:32:37;;;;;;;;;;;;;;;8.70;76.85;102751.46;106393;1261;61333;-84
2023/09/25 01:35:05;;;;;;;;;;;;;;;8.70;76.87;102750.96;106254;1261;125242;-83
2023/09/25 01:37:32;;;;;;;;;;;;;;;8.73;76.97;102751.98;106282;1263;74704;-83
2023/09/25 01:39:58;;;;;;;;;;;;;;;8.73;76.95;102753.27;106263;1261;125727;-83
2023/09/25 01:42:25;;;;;;;;;;;;;;;8.73;76.99;102754.14;106235;1260;72719;-82
2023/09/25 01:44:52;;;;;;;;;;;;;;;8.73;76.97;102753.98;106103;1274;61201;-83
2023/09/25 01:47:18;;;;;;;;;;;;;;;8.73;76.93;102757.78;106262;1261;125294;-83
2023/09/25 01:49:45;;;;;;;;;;;;;;;8.72;76.88;102757.18;106363;1264;73734;-85
2023/09/25 01:52:13;;;;;;;;;;;;;;;8.70;76.93;102759.70;106258;1260;124638;-87
2023/09/25 01:54:40;;;;;;;;;;;;;;;8.69;76.90;102762.83;106420;1260;72713;-83
2023/09/25 01:57:07;;;;;;;;;;;;;;;8.69;76.87;102762.95;106260;1261;124765;-85
2023/09/25 01:59:34;;;;;;;;;;;;;;;8.67;76.87;102760.94;106302;1264;61202;-85
2023/09/25 02:02:00;;;;;;;;;;;;;;;8.65;76.91;102761.52;106332;1263;73370;-83
2023/09/25 02:04:27;;;;;;;;;;;;;;;8.64;76.85;102759.48;106236;1261;125032;-83
2023/09/25 02:06:54;;;;;;;;;;;;;;;8.62;76.92;102757.80;106357;1264;73500;-83
2023/09/25 02:09:20;;;;;;;;;;;;;;;8.60;76.93;102757.15;106182;1263;124863;-83
2023/09/25 02:11:47;;;;;;;;;;;;;;;8.59;77.00;102753.23;106269;1260;61267;-83
2023/09/25 02:14:14;;;;;;;;;;;;;;;8.60;77.09;102754.33;106292;1262;61168;-83
2023/09/25 02:16:41;;;;;;;;;;;;;;;8.58;77.01;102757.00;106146;1264;124746;-83
2023/09/25 02:19:07;;;;;;;;;;;;;;;8.56;77.06;102762.46;106235;1260;72692;-83
2023/09/25 02:21:34;;;;;;;;;;;;;;;8.55;77.04;102757.88;106078;1261;125042;-83
2023/09/25 02:24:00;;;;;;;;;;;;;;;8.54;77.10;102756.42;106272;1263;61357;-82
2023/09/25 02:26:27;;;;;;;;;;;;;;;8.55;77.10;102754.89;106297;1263;74551;-83
2023/09/25 02:28:53;;;;;;;;;;;;;;;8.55;77.11;102753.13;106263;1260;124939;-83
2023/09/25 02:31:20;;;;;;;;;;;;;;;8.55;77.16;102753.13;106205;1263;72867;-82
2023/09/25 02:33:46;;;;;;;;;;;;;;;8.55;77.22;102755.25;106278;1260;125399;-83
2023/09/25 02:36:13;;;;;;;;;;;;;;;8.56;77.14;102756.54;106224;1259;61312;-82
2023/09/25 02:38:40;;;;;;;;;;;;;;;8.56;77.21;102758.64;106290;1261;73483;-83
2023/09/25 02:41:06;;;;;;;;;;;;;;;8.58;77.23;102755.27;106284;1260;124885;-82
2023/09/25 02:43:33;;;;;;;;;;;;;;;8.57;77.11;102755.02;106368;1260;72688;-82
2023/09/25 02:45:59;;;;;;;;;;;;;;;8.56;77.04;102757.05;106183;1260;124800;-82
2023/09/25 02:48:26;;;;;;;;;;;;;;;8.54;77.09;102760.63;106263;1260;61160;-82
2023/09/25 02:50:52;;;;;;;;;;;;;;;8.53;77.06;102758.63;106244;1261;73745;-82
2023/09/25 02:53:19;;;;;;;;;;;;;;;8.52;77.05;102764.11;106278;1262;124574;-81
2023/09/25 02:55:49;;;;;;;;;;;;;;;8.50;77.08;102767.85;106290;1260;61375;-82
2023/09/25 02:58:16;;;;;;;;;;;;;;;8.49;77.10;102769.54;106098;1260;125577;-81
2023/09/25 03:00:42;;;;;;;;;;;;;;;8.48;77.16;102775.77;106192;1261;61419;-82
2023/09/25 03:03:09;;;;;;;;;;;;;;;8.47;77.16;102774.98;106065;1265;124404;-84
2023/09/25 03:05:36;;;;;;;;;;;;;;;8.45;77.21;102772.27;106208;1260;65388;-84
2023/09/25 03:08:03;;;;;;;;;;;;;;;8.46;77.23;102773.36;106233;1261;72735;-86
2023/09/25 03:10:29;;;;;;;;;;;;;;;8.46;77.23;102772.47;106075;1260;124033;-85
2023/09/25 03:12:56;;;;;;;;;;;;;;;8.45;77.26;102771.35;106208;1258;60164;-85
2023/09/25 03:15:24;;;;;;;;;;;;;;;8.43;77.31;102768.39;106151;1260;124513;-85
2023/09/25 03:17:50;;;;;;;;;;;;;;;8.40;77.33;102767.15;106197;1260;65221;-84
2023/09/25 03:20:17;;;;;;;;;;;;;;;8.37;77.36;102772.79;106147;1263;71381;-84
2023/09/25 03:22:44;;;;;;;;;;;;;;;8.35;77.41;102768.93;106209;1260;123956;-84
2023/09/25 03:25:12;;;;;;;;;;;;;;;8.32;77.52;102771.76;106109;1261;61258;-83
2023/09/25 03:27:39;;;;;;;;;;;;;;;8.30;77.48;102770.52;106017;1260;125221;-82
2023/09/25 03:30:06;;;;;;;;;;;;;;;8.27;77.54;102773.82;106315;1261;65062;-82
2023/09/25 03:32:32;;;;;;;;;;;;;;;8.24;77.67;102775.06;106227;1261;70556;-82
2023/09/25 03:34:59;;;;;;;;;;;;;;;8.23;77.69;102773.04;106133;1260;124334;-81
2023/09/25 03:37:26;;;;;;;;;;;;;;;8.22;77.80;102777.34;106224;1260;60168;-81
2023/09/25 03:39:52;;;;;;;;;;;;;;;8.22;77.89;102779.95;106173;1261;123854;-83
2023/09/25 03:42:19;;;;;;;;;;;;;;;8.21;77.77;102779.17;106402;1260;65078;-81
2023/09/25 03:44:47;;;;;;;;;;;;;;;8.19;77.80;102779.59;106219;1261;71463;-82
2023/09/25 03:47:13;;;;;;;;;;;;;;;8.17;77.88;102781.18;106169;1259;123972;-82
2023/09/25 03:49:42;;;;;;;;;;;;;;;8.15;77.81;102784.56;106177;1260;61267;-82
2023/09/25 03:52:08;;;;;;;;;;;;;;;8.13;77.86;102785.48;106142;1258;123983;-80
2023/09/25 03:54:35;;;;;;;;;;;;;;;8.11;77.94;102794.65;106434;1259;66290;-80
2023/09/25 03:57:02;;;;;;;;;;;;;;;8.09;77.93;102801.11;106212;1261;72303;-82
2023/09/25 03:59:28;;;;;;;;;;;;;;;8.06;78.03;102803.00;106240;1261;124055;-79
2023/09/25 04:01:56;;;;;;;;;;;;;;;8.05;78.04;102805.34;106285;1260;61301;-82
2023/09/25 04:04:22;;;;;;;;;;;;;;;8.03;78.09;102812.08;106398;1261;124721;-83
2023/09/25 04:06:49;;;;;;;;;;;;;;;8.02;78.12;102813.56;106260;1259;67622;-85
2023/09/25 04:09:16;;;;;;;;;;;;;;;8.01;78.11;102809.66;106160;1259;125278;-83
2023/09/25 04:11:43;;;;;;;;;;;;;;;8.00;78.14;102803.44;106606;1261;59570;-83
2023/09/25 04:14:10;;;;;;;;;;;;;;;7.99;78.22;102803.95;106764;1260;61384;-79
2023/09/25 04:16:36;;;;;;;;;;;;;;;7.99;78.15;102807.11;106089;1261;124728;-79
2023/09/25 04:19:04;;;;;;;;;;;;;;;7.99;78.27;102809.54;106247;1266;61217;-79
2023/09/25 04:21:33;;;;;;;;;;;;;;;8.01;78.30;102807.35;106571;1260;125827;-79
2023/09/25 04:24:01;;;;;;;;;;;;;;;8.03;78.42;102802.30;106512;1261;61314;-80
2023/09/25 04:26:28;;;;;;;;;;;;;;;8.05;78.41;102805.75;106190;1260;61234;-81
2023/09/25 04:28:55;;;;;;;;;;;;;;;8.08;78.51;102808.05;105999;1261;124707;-80
2023/09/25 04:31:22;;;;;;;;;;;;;;;8.12;78.48;102809.70;106228;1264;65104;-80
2023/09/25 04:33:48;;;;;;;;;;;;;;;8.15;78.51;102809.94;106145;1258;126010;-81
2023/09/25 04:36:15;;;;;;;;;;;;;;;8.18;78.39;102808.36;106304;1260;61344;-78
2023/09/25 04:38:42;;;;;;;;;;;;;;;8.21;78.47;102810.52;106373;1260;61370;-81
2023/09/25 04:41:08;;;;;;;;;;;;;;;8.24;78.62;102804.78;106221;1258;124607;-80
2023/09/25 04:43:35;;;;;;;;;;;;;;;8.30;78.59;102805.35;106311;1261;66294;-90
2023/09/25 04:46:01;;;;;;;;;;;;;;;8.36;78.55;102807.50;106195;1260;125233;-86
2023/09/25 04:48:29;;;;;;;;;;;;;;;8.42;78.56;102812.09;106416;1260;61338;-87
2023/09/25 04:50:56;;;;;;;;;;;;;;;8.48;78.51;102811.27;106383;1260;61289;-87
2023/09/25 04:53:23;;;;;;;;;;;;;;;8.54;78.43;102814.67;106318;1259;124360;-87
2023/09/25 04:55:50;;;;;;;;;;;;;;;8.61;78.37;102816.84;106355;1259;66279;-85
2023/09/25 04:58:16;;;;;;;;;;;;;;;8.68;78.32;102815.77;106239;1259;124574;-81
2023/09/25 05:00:44;;;;;;;;;;;;;;;8.76;78.25;102811.91;106392;1263;61302;-83
2023/09/25 05:03:10;;;;;;;;;;;;;;;8.84;78.39;102808.94;106130;1260;124957;-81
2023/09/25 05:05:37;;;;;;;;;;;;;;;8.91;78.13;102811.11;106347;1259;74666;-82
2023/09/25 05:08:04;;;;;;;;;;;;;;;8.98;78.15;102809.29;106326;1259;65729;-81
2023/09/25 05:10:31;;;;;;;;;;;;;;;9.06;78.00;102806.46;106237;1258;124581;-82
2023/09/25 05:12:57;;;;;;;;;;;;;;;9.10;77.81;102811.32;106173;1263;59665;-82
2023/09/25 05:15:24;;;;;;;;;;;;;;;9.16;77.80;102816.79;106600;1260;125033;-84
2023/09/25 05:17:51;;;;;;;;;;;;;;;9.24;77.82;102818.30;106740;1261;74705;-85
2023/09/25 05:20:18;;;;;;;;;;;;;;;9.31;77.69;102821.94;106428;1263;64791;-84
2023/09/25 05:22:46;;;;;;;;;;;;;;;9.38;77.64;102827.23;106543;1262;124812;-81
2023/09/25 05:25:13;;;;;;;;;;;;;;;9.42;77.43;102823.63;106666;1263;61261;-79
2023/09/25 05:27:41;;;;;;;;;;;;;;;9.47;77.41;102822.91;106412;1260;125545;-78
2023/09/25 05:30:11;;;;;;;;;;;;;;;9.53;77.34;102821.89;106702;1259;73302;-80
2023/09/25 05:32:43;;;;;;;;;;;;;;;9.58;77.27;102824.30;106638;1261;66250;-80
2023/09/25 05:35:10;;;;;;;;;;;;;;;9.65;77.11;102828.21;106257;1259;124757;-80
2023/09/25 05:37:37;;;;;;;;;;;;;;;9.69;77.12;102827.79;106725;1260;61367;-80
2023/09/25 05:40:05;;;;;;;;;;;;;;;9.76;77.03;102830.63;106584;1259;125300;-80
2023/09/25 05:42:31;;;;;;;;;;;;;;;9.81;77.01;102829.20;106651;1262;74780;-80
2023/09/25 05:44:58;;;;;;;;;;;;;;;9.89;77.04;102826.23;106345;1258;65088;-80
2023/09/25 05:47:25;;;;;;;;;;;;;;;9.97;77.00;102828.06;106550;1259;124821;-80
2023/09/25 05:49:51;;;;;;;;;;;;;;;10.06;76.94;102831.95;106457;1260;59434;-80
2023/09/25 05:52:18;;;;;;;;;;;;;;;10.14;77.01;102832.66;106385;1265;125420;-80
2023/09/25 05:54:45;;;;;;;;;;;;;;;10.24;76.84;102827.42;106508;1263;73671;-79
2023/09/25 05:57:12;;;;;;;;;;;;;;;10.34;76.84;102831.36;106143;1259;125617;-80
2023/09/25 05:59:38;;;;;;;;;;;;;;;10.42;76.87;102830.79;106238;1258;72704;-80
2023/09/25 06:02:05;;;;;;;;;;;;;;;10.50;76.77;102830.03;106195;1260;61402;-80
2023/09/25 06:04:34;;;;;;;;;;;;;;;10.58;76.82;102829.80;106202;1258;124137;-80
2023/09/25 06:07:00;;;;;;;;;;;;;;;10.68;76.77;102831.08;106358;1259;73142;-80
2023/09/25 06:09:27;;;;;;;;;;;;;;;10.77;76.87;102830.02;106387;1261;124251;-81
2023/09/25 06:11:53;;;;;;;;;;;;;;;10.86;76.84;102828.27;106450;1259;72717;-80
2023/09/25 06:14:21;;;;;;;;;;;;;;;10.94;76.77;102832.57;106541;1264;61270;-81
2023/09/25 06:16:48;;;;;;;;;;;;;;;11.04;76.94;102838.57;106540;1260;124096;-80
2023/09/25 06:19:15;;;;;;;;;;;;;;;11.14;77.02;102837.21;106577;1260;74893;-80
2023/09/25 06:21:42;;;;;;;;;;;;;;;11.26;77.12;102840.70;106530;1259;124726;-79
2023/09/25 06:24:09;;;;;;;;;;;;;;;11.39;77.16;102838.75;106283;1265;72723;-80
2023/09/25 06:26:39;;;;;;;;;;;;;;;11.51;77.22;102842.93;106235;1259;59721;-79
2023/09/25 06:29:08;;;;;;;;;;;;;;;11.64;77.34;102843.14;106310;1259;124979;-81
2023/09/25 06:31:36;;;;;;;;;;;;;;;11.80;77.38;102842.90;106407;1259;73408;-80
2023/09/25 06:34:04;;;;;;;;;;;;;;;11.94;77.36;102844.77;106292;1263;124194;-80
2023/09/25 06:36:31;;;;;;;;;;;;;;;12.07;77.36;102848.27;106275;1261;71794;-79
2023/09/25 06:38:58;;;;;;;;;;;;;;;12.18;77.17;102844.95;106312;1263;61250;-80
2023/09/25 06:41:26;;;;;;;;;;;;;;;12.26;77.11;102842.05;106179;1259;123984;-80
2023/09/25 06:43:54;;;;;;;;;;;;;;;12.36;77.13;102844.33;106177;1258;73707;-81
2023/09/25 06:46:20;;;;;;;;;;;;;;;12.45;77.14;102845.98;106139;1258;124137;-81
2023/09/25 06:48:50;;;;;;;;;;;;;;;12.53;77.09;102847.11;106269;1259;72817;-81
2023/09/25 06:51:17;;;;;;;;;;;;;;;12.63;77.13;102847.08;106104;1259;125480;-81
2023/09/25 06:53:44;;;;;;;;;;;;;;;12.72;77.01;102846.45;106328;1259;61142;-81
2023/09/25 06:56:10;;;;;;;;;;;;;;;12.81;76.98;102850.09;106134;1259;73929;-81
2023/09/25 06:58:37;;;;;;;;;;;;;;;12.90;77.02;102854.21;106080;1259;124041;-81
2023/09/25 07:01:04;;;;;;;;;;;;;;;13.01;77.07;102856.85;106088;1262;71071;-81
2023/09/25 07:03:30;;;;;;;;;;;;;;;13.10;77.03;102856.03;106066;1260;125317;-81
2023/09/25 07:05:57;;;;;;;;;;;;;;;13.19;77.01;102855.98;106278;1263;61256;-81
2023/09/25 07:08:25;;;;;;;;;;;;;;;13.29;76.98;102854.88;106163;1261;74372;-81
2023/09/25 07:10:52;;;;;;;;;;;;;;;13.40;76.85;102854.69;106187;1260;124737;-81
2023/09/25 07:13:22;;;;;;;;;;;;;;;13.51;76.91;102852.91;106285;1259;72709;-80
2023/09/25 07:15:48;;;;;;;;;;;;;;;13.62;76.77;102856.98;106108;1261;125818;-80
2023/09/25 07:18:16;;;;;;;;;;;;;;;13.74;76.76;102857.36;106395;1259;61237;-79
2023/09/25 07:20:46;;;;;;;;;;;;;;;13.87;76.72;102857.20;106236;1260;74784;-80
2023/09/25 07:23:13;;;;;;;;;;;;;;;13.99;76.72;102859.17;106314;1259;125183;-79
2023/09/25 07:25:40;;;;;;;;;;;;;;;14.11;76.73;102860.77;106271;1261;72673;-80
2023/09/25 07:28:06;;;;;;;;;;;;;;;14.24;76.62;102861.65;106106;1261;124918;-80
2023/09/25 07:30:33;;;;;;;;;;;;;;;14.36;76.48;102863.08;106246;1263;61270;-80
2023/09/25 07:33:00;;;;;;;;;;;;;;;14.47;76.31;102862.11;106385;1258;75167;-80
2023/09/25 07:35:27;;;;;;;;;;;;;;;14.59;76.26;102866.20;106098;1259;124831;-80
2023/09/25 07:37:54;;;;;;;;;;;;;;;14.70;76.04;102866.68;106150;1265;72517;-80
2023/09/25 07:40:21;;;;;;;;;;;;;;;14.81;75.97;102869.24;106205;1265;125021;-80
2023/09/25 07:42:47;;;;;;;;;;;;;;;14.91;75.69;102867.75;106320;1258;61383;-80
2023/09/25 07:45:22;;;;;;;;;;;;;;;15.01;75.67;102868.31;106203;1260;125298;-80
2023/09/25 07:47:49;;;;;;;;;;;;;;;15.11;75.51;102861.26;106266;1258;66293;-80
2023/09/25 07:50:19;;;;;;;;;;;;;;;15.20;75.41;102863.05;106315;1259;70075;-81
2023/09/25 07:52:46;;;;;;;;;;;;;;;15.29;75.32;102860.05;105985;1260;124811;-81
2023/09/25 07:55:13;;;;;;;;;;;;;;;15.38;75.11;102862.34;106201;1259;61452;-80
2023/09/25 07:57:40;;;;;;;;;;;;;;;15.46;74.86;102863.35;106038;1261;125199;-80
2023/09/25 08:00:25;;;;;;;;;;;;;;;15.51;74.52;102862.31;106200;1262;66554;-81
2023/09/25 08:02:52;;;;;;;;;;;;;;;15.57;74.26;102861.48;106231;1260;72586;-81
2023/09/25 08:05:19;;;;;;;;;;;;;;;15.63;74.18;102866.47;106147;1259;124214;-81
2023/09/25 08:07:46;;;;;;;;;;;;;;;15.70;74.19;102868.02;106300;1260;61280;-81
2023/09/25 08:10:13;;;;;;;;;;;;;;;15.77;73.92;102867.39;106140;1259;124060;-81
2023/09/25 08:12:40;;;;;;;;;;;;;;;15.81;73.68;102869.66;106228;1259;65969;-80
2023/09/25 08:15:07;;;;;;;;;;;;;;;15.87;73.38;102870.96;106184;1263;124736;-80
2023/09/25 08:17:34;;;;;;;;;;;;;;;15.92;73.12;102873.27;106269;1259;59802;-81
2023/09/25 08:20:01;;;;;;;;;;;;;;;15.97;72.81;102873.98;106270;1264;61308;-80
2023/09/25 08:22:27;;;;;;;;;;;;;;;16.01;72.46;102875.69;106107;1259;124277;-79
2023/09/25 08:24:54;;;;;;;;;;;;;;;16.03;72.20;102871.73;106176;1259;65446;-82
2023/09/25 08:27:20;;;;;;;;;;;;;;;16.07;72.02;102870.27;106132;1263;125101;-80
2023/09/25 08:29:47;;;;;;;;;;;;;;;16.12;71.94;102866.73;106249;1263;61300;-82
2023/09/25 08:32:14;;;;;;;;;;;;;;;16.19;71.81;102865.73;106229;1260;61277;-82
2023/09/25 08:34:41;;;;;;;;;;;;;;;16.25;71.28;102869.67;105942;1260;124912;-82
2023/09/25 08:37:08;;;;;;;;;;;;;;;16.30;71.04;102866.65;106220;1260;66316;-82
2023/09/25 08:39:34;;;;;;;;;;;;;;;16.37;70.74;102866.55;106229;1263;125978;-80
2023/09/25 08:42:01;;;;;;;;;;;;;;;16.42;70.48;102861.23;106311;1259;61322;-80
2023/09/25 08:44:28;;;;;;;;;;;;;;;16.48;70.26;102863.55;106223;1259;61315;-84
2023/09/25 08:46:54;;;;;;;;;;;;;;;16.53;69.85;102861.79;106253;1260;124244;-81
2023/09/25 08:49:21;;;;;;;;;;;;;;;16.56;69.56;102859.92;106375;1258;66105;-86
2023/09/25 08:51:47;;;;;;;;;;;;;;;16.58;69.31;102865.83;106156;1261;124351;-81
2023/09/25 08:54:14;;;;;;;;;;;;;;;16.59;69.17;102859.15;106302;1262;61187;-86
2023/09/25 08:56:40;;;;;;;;;;;;;;;16.63;69.17;102857.87;106244;1261;61359;-86
2023/09/25 08:59:07;;;;;;;;;;;;;;;16.69;69.17;102852.05;106229;1265;124207;-86
2023/09/25 09:01:34;;;;;;;;;;;;;;;16.76;69.01;102852.06;106296;1264;66297;-86
2023/09/25 09:04:01;;;;;;;;;;;;;;;16.78;68.72;102844.86;106267;1261;124234;-86
2023/09/25 09:06:29;;;;;;;;;;;;;;;16.82;68.74;102847.86;106362;1260;61103;-86
2023/09/25 09:08:58;;;;;;;;;;;;;;;16.86;68.61;102846.79;106464;1258;61293;-86
2023/09/25 09:11:25;;;;;;;;;;;;;;;16.90;68.27;102843.02;106323;1260;124774;-86
2023/09/25 09:13:52;;;;;;;;;;;;;;;16.95;68.31;102838.73;106417;1262;64973;-86
2023/09/25 09:16:19;;;;;;;;;;;;;;;17.01;68.32;102836.45;106084;1263;124998;-86
2023/09/25 09:18:46;;;;;;;;;;;;;;;17.07;67.81;102832.21;106296;1263;198908;-86
2023/09/25 09:21:23;;;;;;;;;;;;;;;17.13;67.50;102833.44;106295;1261;125457;-86
2023/09/25 09:23:49;;;;;;;;;;;;;;;17.20;67.39;102831.19;106399;1261;74705;-86
2023/09/25 09:26:17;;;;;;;;;;;;;;;17.28;67.31;102828.58;106449;1259;66300;-86
2023/09/25 09:28:43;;;;;;;;;;;;;;;17.35;67.27;102826.67;106198;1260;125077;-86
2023/09/25 09:31:11;;;;;;;;;;;;;;;17.44;67.29;102824.63;106122;1261;61435;-87
2023/09/25 09:33:38;;;;;;;;;;;;;;;17.52;67.07;102823.98;106276;1259;124890;-88
2023/09/25 09:36:04;;;;;;;;;;;;;;;17.58;66.80;102822.38;106375;1259;74669;-86
2023/09/25 09:38:33;;;;;;;;;;;;;;;17.63;66.81;102814.54;106351;1259;65501;-86
2023/09/25 09:41:01;;;;;;;;;;;;;;;17.69;66.60;102809.73;106205;1259;125055;-86
2023/09/25 09:43:27;;;;;;;;;;;;;;;17.69;66.38;102806.89;106429;1262;62834;-86
2023/09/25 09:45:54;;;;;;;;;;;;;;;17.73;66.51;102804.86;106313;1259;124058;-86
2023/09/25 09:48:20;;;;;;;;;;;;;;;17.81;66.60;102804.03;106423;1264;73784;-86
2023/09/25 09:50:48;;;;;;;;;;;;;;;17.87;66.54;102803.35;106355;1259;65752;-85
2023/09/25 09:53:16;;;;;;;;;;;;;;;17.90;66.37;102800.42;106225;1259;124219;-87
2023/09/25 09:55:42;;;;;;;;;;;;;;;17.96;66.45;102805.19;106334;1259;59358;-86
2023/09/25 09:58:09;;;;;;;;;;;;;;;18.00;66.33;102803.71;106203;1259;124116;-86
2023/09/25 10:00:36;;;;;;;;;;;;;;;18.03;66.24;102799.16;106263;1263;74217;-86
2023/09/25 10:03:03;;;;;;;;;;;;;;;18.06;66.32;102798.53;106304;1263;66365;-86
2023/09/25 10:05:30;;;;;;;;;;;;;;;18.11;66.28;102788.88;106248;1259;74158;-87
2023/09/25 10:08:09;;;;;;;;;;;;;;;18.15;66.26;102790.41;106288;1263;61173;-86
2023/09/25 10:10:36;;;;;;;;;;;;;;;18.18;66.12;102783.37;106208;1259;123009;-87
2023/09/25 10:13:02;;;;;;;;;;;;;;;18.20;66.05;102780.78;106208;1259;73423;-87
2023/09/25 10:15:30;;;;;;;;;;;;;;;18.22;66.06;102779.05;106215;1258;124678;-86
2023/09/25 10:17:57;;;;;;;;;;;;;;;18.26;66.04;102776.30;106358;1262;72698;-87
2023/09/25 10:20:33;;;;;;;;;;;;;;;18.31;65.99;102774.10;106433;1259;59308;-87
2023/09/25 10:23:03;;;;;;;;;;;;;;;18.34;65.92;102775.45;106432;1259;124459;-87
2023/09/25 10:25:48;;;;;;;;;;;;;;;18.39;65.82;102773.95;106295;1259;74677;-87
2023/09/25 10:28:17;;;;;;;;;;;;;;;18.41;65.60;102772.06;106274;1259;124700;-86
2023/09/25 10:30:44;;;;;;;;;;;;;;;18.46;65.68;102768.27;106309;1259;70741;-87
2023/09/25 10:33:11;;;;;;;;;;;;;;;18.51;65.59;102772.10;106197;1259;125313;-85
2023/09/25 10:35:38;;;;;;;;;;;;;;;18.57;65.59;102774.05;106415;1259;61234;-87
2023/09/25 10:38:19;;;;;;;;;;;;;;;18.65;65.57;102762.16;106347;1259;74748;-87
2023/09/25 10:40:46;;;;;;;;;;;;;;;18.70;65.11;102754.43;106294;1260;126256;-88
2023/09/25 10:43:14;;;;;;;;;;;;;;;18.73;65.02;102753.46;106187;1261;71440;-87
2023/09/25 10:45:41;;;;;;;;;;;;;;;18.77;64.76;102753.02;106250;1259;125609;-88
2023/09/25 10:48:07;;;;;;;;;;;;;;;18.73;64.51;102741.89;106337;1261;61178;-88
2023/09/25 10:50:37;;;;;;;;;;;;;;;18.74;64.53;102741.39;106351;1259;73371;-87
2023/09/25 10:53:05;;;;;;;;;;;;;;;18.81;64.54;102744.23;106251;1263;124057;-86
2023/09/25 10:55:32;;;;;;;;;;;;;;;18.90;64.48;102744.25;106283;1264;72663;-87
2023/09/25 10:58:00;;;;;;;;;;;;;;;18.99;64.56;102742.52;106152;1259;124287;-87
2023/09/25 11:00:27;;;;;;;;;;;;;;;19.07;64.17;102734.67;106411;1259;61123;-86
2023/09/25 11:02:53;;;;;;;;;;;;;;;19.08;63.85;102734.88;106323;1259;74785;-87
2023/09/25 11:05:21;;;;;;;;;;;;;;;19.11;63.72;102728.00;106258;1259;124307;-87
2023/09/25 11:07:47;;;;;;;;;;;;;;;19.20;63.65;102730.85;106219;1259;72749;-86
2023/09/25 11:10:14;;;;;;;;;;;;;;;19.29;63.60;102730.50;106073;1260;124284;-86
2023/09/25 11:12:41;;;;;;;;;;;;;;;19.46;63.59;102728.55;106286;1259;61173;-86
2023/09/25 11:15:11;;;;;;;;;;;;;;;19.66;63.28;102724.28;106045;1259;124218;-85
2023/09/25 11:17:38;;;;;;;;;;;;;;;19.79;62.87;102718.68;106337;1259;66370;-86
2023/09/25 11:20:18;;;;;;;;;;;;;;;19.81;62.23;102715.34;106290;1259;73701;-88
2023/09/25 11:22:46;;;;;;;;;;;;;;;19.82;62.17;102715.88;106244;1258;124050;-86
2023/09/25 11:25:16;;;;;;;;;;;;;;;19.88;62.21;102715.63;106382;1259;61260;-88
2023/09/25 11:27:58;;;;;;;;;;;;;;;20.01;62.09;102715.86;106215;1259;124274;-88
2023/09/25 11:30:27;;;;;;;;;;;;;;;20.14;61.93;102711.98;106373;1263;66760;-88
2023/09/25 11:32:54;;;;;;;;;;;;;;;20.27;61.92;102705.58;106364;1259;71917;-88
2023/09/25 11:35:21;;;;;;;;;;;;;;;20.34;61.57;102705.00;106276;1262;123904;-87
2023/09/25 11:37:58;;;;;;;;;;;;;;;20.36;61.37;102698.79;106288;1263;61159;-88
2023/09/25 11:40:25;;;;;;;;;;;;;;;20.41;61.36;102698.67;106385;1259;123291;-88
2023/09/25 11:42:52;;;;;;;;;;;;;;;20.45;61.38;102697.86;106307;1259;65104;-88
2023/09/25 11:45:19;;;;;;;;;;;;;;;20.48;60.95;102691.65;106316;1259;124452;-88
2023/09/25 11:47:46;;;;;;;;;;;;;;;20.47;60.48;102694.84;106297;1262;61245;-88
2023/09/25 11:50:14;;;;;;;;;;;;;;;20.43;60.42;102689.80;106347;1258;61405;-88
2023/09/25 11:52:41;;;;;;;;;;;;;;;20.47;60.39;102685.58;106285;1263;124089;-88
2023/09/25 11:55:11;;;;;;;;;;;;;;;20.54;60.21;102688.53;106340;1262;64440;-87
2023/09/25 11:57:38;;;;;;;;;;;;;;;20.54;59.93;102685.49;106236;1259;124455;-86
2023/09/25 12:00:05;;;;;;;;;;;;;;;20.47;59.83;102684.85;106472;1261;61309;-87
2023/09/25 12:02:32;;;;;;;;;;;;;;;20.44;59.80;102686.79;106340;1259;61172;-86
2023/09/25 12:04:59;;;;;;;;;;;;;;;20.49;60.15;102685.25;106275;1264;124263;-86
2023/09/25 12:07:30;;;;;;;;;;;;;;;20.63;60.27;102682.63;106287;1258;65101;-86
2023/09/25 12:09:57;;;;;;;;;;;;;;;20.71;59.92;102677.58;106175;1260;124222;-87
2023/09/25 12:12:24;;;;;;;;;;;;;;;20.66;59.34;102673.40;106294;1263;61376;-87
2023/09/25 12:14:53;;;;;;;;;;;;;;;20.63;59.32;102669.08;106256;1259;61250;-86
2023/09/25 12:17:19;;;;;;;;;;;;;;;20.61;59.25;102666.19;106127;1259;124441;-88
2023/09/25 12:19:46;;;;;;;;;;;;;;;20.58;59.26;102664.86;106340;1259;67995;-88
2023/09/25 12:22:13;;;;;;;;;;;;;;;20.61;59.24;102665.30;106241;1259;124716;-83
2023/09/25 12:24:39;;;;;;;;;;;;;;;20.63;59.06;102664.26;106368;1259;61281;-82
2023/09/25 12:27:06;;;;;;;;;;;;;;;20.65;58.96;102661.25;106136;1259;124459;-83
2023/09/25 12:29:32;;;;;;;;;;;;;;;20.67;58.72;102658.77;106129;1259;76446;-82